createdAt,value
2022-11-24T00:01:18.333Z,85.05
2022-11-24T00:03:47.500Z,90.05
2022-11-24T00:06:16.332Z,85.68
2022-11-24T00:08:45.316Z,81.55
2022-11-24T00:11:18.215Z,80.70
2022-11-24T00:13:45.997Z,83.63
2022-11-24T00:16:21.804Z,68.82
2022-11-24T00:18:52.371Z,75.28
2022-11-24T00:21:20.241Z,71.47
2022-11-24T00:23:48.525Z,69.32
2022-11-24T00:26:24.090Z,70.15
2022-11-24T00:28:52.924Z,70.57
2022-11-24T00:31:22.979Z,70.80
2022-11-24T00:33:52.791Z,62.92
2022-11-24T00:36:22.551Z,57.58
2022-11-24T00:38:54.951Z,70.50
2022-11-24T00:41:23.016Z,61.35
2022-11-24T00:43:50.526Z,60.60
2022-11-24T00:46:17.996Z,62.25
2022-11-24T00:48:45.397Z,66.32
2022-11-24T00:51:13.974Z,67.05
2022-11-24T00:53:41.475Z,63.80
2022-11-24T00:56:09.334Z,62.67
2022-11-24T00:58:37.557Z,67.65
2022-11-24T01:01:12.281Z,68.38
2022-11-24T01:03:40.009Z,63.83
2022-11-24T01:06:10.052Z,65.38
2022-11-24T01:08:38.371Z,60.78
2022-11-24T01:11:09.825Z,65.35
2022-11-24T01:13:37.312Z,60.30
2022-11-24T01:16:04.572Z,63.47
2022-11-24T01:18:31.858Z,63.25
2022-11-24T01:20:59.272Z,58.42
2022-11-24T01:23:26.502Z,68.20
2022-11-24T01:25:54.127Z,60.38
2022-11-24T01:28:21.284Z,64.45
2022-11-24T01:30:59.460Z,58.47
2022-11-24T01:33:26.946Z,58.22
2022-11-24T01:35:55.256Z,58.80
2022-11-24T01:38:22.521Z,60.13
2022-11-24T01:40:49.736Z,58.35
2022-11-24T01:43:19.259Z,58.63
2022-11-24T01:45:46.869Z,62.45
2022-11-24T01:48:25.881Z,59.03
2022-11-24T01:51:04.834Z,57.10
2022-11-24T01:53:32.117Z,65.93
2022-11-24T01:55:59.689Z,54.65
2022-11-24T01:58:30.287Z,70.45
2022-11-24T02:00:57.571Z,61.13
2022-11-24T02:03:29.189Z,63.83
2022-11-24T02:06:09.400Z,60.17
2022-11-24T02:08:47.883Z,69.65
2022-11-24T02:11:15.223Z,76.70
2022-11-24T02:13:42.835Z,64.35
2022-11-24T02:16:12.013Z,63.95
2022-11-24T02:18:40.040Z,67.30
2022-11-24T02:21:08.061Z,67.95
2022-11-24T02:24:07.205Z,68.63
2022-11-24T02:26:41.734Z,62.40
2022-11-24T02:29:10.584Z,62.83
2022-11-24T02:31:38.544Z,65.95
2022-11-24T02:34:05.848Z,65.60
2022-11-24T02:36:33.130Z,65.35
2022-11-24T02:39:00.576Z,62.10
2022-11-24T02:41:28.433Z,59.03
2022-11-24T02:43:57.282Z,59.03
2022-11-24T02:46:24.886Z,56.97
2022-11-24T02:48:52.758Z,56.25
2022-11-24T02:51:20.307Z,55.13
2022-11-24T02:53:47.474Z,56.88
2022-11-24T02:56:14.699Z,51.33
2022-11-24T02:58:41.942Z,53.92
2022-11-24T03:01:09.294Z,50.10
2022-11-24T03:03:36.615Z,49.75
2022-11-24T03:06:03.891Z,43.25
2022-11-24T03:08:31.522Z,45.38
2022-11-24T03:10:58.784Z,44.22
2022-11-24T03:13:26.280Z,44.83
2022-11-24T03:15:53.538Z,47.08
2022-11-24T03:18:20.752Z,46.33
2022-11-24T03:20:47.903Z,42.35
2022-11-24T03:23:15.153Z,42.08
2022-11-24T03:25:42.330Z,44.17
2022-11-24T03:28:09.610Z,43.45
2022-11-24T03:30:36.775Z,43.03
2022-11-24T03:33:06.013Z,43.28
2022-11-24T03:35:33.212Z,41.80
2022-11-24T03:38:00.459Z,42.88
2022-11-24T03:40:27.684Z,41.42
2022-11-24T03:42:54.963Z,45.17
2022-11-24T03:45:45.074Z,43.30
2022-11-24T03:48:09.336Z,46.55
2022-11-24T03:50:36.598Z,45.90
2022-11-24T03:53:06.816Z,39.78
2022-11-24T03:55:34.012Z,42.47
2022-11-24T03:58:01.184Z,44.08
2022-11-24T04:00:28.669Z,39.53
2022-11-24T04:02:55.949Z,41.17
2022-11-24T04:05:23.278Z,44.53
2022-11-24T04:07:50.595Z,40.78
2022-11-24T04:10:17.925Z,44.90
2022-11-24T04:12:45.727Z,45.10
2022-11-24T04:15:15.959Z,42.75
2022-11-24T04:17:43.560Z,46.08
2022-11-24T04:20:12.245Z,39.13
2022-11-24T04:22:40.134Z,44.05
2022-11-24T04:25:08.433Z,40.20
2022-11-24T04:27:36.678Z,40.47
2022-11-24T04:30:05.625Z,46.42
2022-11-24T04:32:33.201Z,44.35
2022-11-24T04:35:00.380Z,41.63
2022-11-24T04:37:27.650Z,48.25
2022-11-24T04:39:55.706Z,49.85
2022-11-24T04:42:23.037Z,41.78
2022-11-24T04:44:50.303Z,44.83
2022-11-24T04:47:24.030Z,42.00
2022-11-24T04:49:51.631Z,44.78
2022-11-24T04:52:20.683Z,42.63
2022-11-24T04:54:49.057Z,45.47
2022-11-24T04:57:24.075Z,49.83
2022-11-24T04:59:52.135Z,43.47
2022-11-24T05:02:19.685Z,44.47
2022-11-24T05:04:47.442Z,45.38
2022-11-24T05:07:18.694Z,41.80
2022-11-24T05:10:06.333Z,40.95
2022-11-24T05:12:34.074Z,43.90
2022-11-24T05:15:02.404Z,40.65
2022-11-24T05:17:35.198Z,41.30
2022-11-24T05:20:02.371Z,46.50
2022-11-24T05:22:30.712Z,48.10
2022-11-24T05:24:57.981Z,39.88
2022-11-24T05:27:25.092Z,43.88
2022-11-24T05:29:52.162Z,42.08
2022-11-24T05:32:19.238Z,42.90
2022-11-24T05:34:46.420Z,38.67
2022-11-24T05:37:13.557Z,38.85
2022-11-24T05:39:40.650Z,39.28
2022-11-24T05:42:26.657Z,38.78
2022-11-24T05:44:54.155Z,37.05
2022-11-24T05:47:21.928Z,39.85
2022-11-24T05:49:49.210Z,33.30
2022-11-24T05:52:17.216Z,35.60
2022-11-24T05:54:44.369Z,41.85
2022-11-24T05:57:11.301Z,39.75
2022-11-24T05:59:38.952Z,35.90
2022-11-24T06:02:06.068Z,42.30
2022-11-24T06:04:33.621Z,37.60
2022-11-24T06:07:00.785Z,41.20
2022-11-24T06:09:27.738Z,35.38
2022-11-24T06:11:54.774Z,39.15
2022-11-24T06:14:21.897Z,40.72
2022-11-24T06:16:48.943Z,32.55
2022-11-24T06:19:15.932Z,35.30
2022-11-24T06:21:42.921Z,40.75
2022-11-24T06:24:09.953Z,32.88
2022-11-24T06:26:36.880Z,37.22
2022-11-24T06:29:03.940Z,32.65
2022-11-24T06:31:30.915Z,32.20
2022-11-24T06:33:57.923Z,34.65
2022-11-24T06:36:25.894Z,36.30
2022-11-24T06:38:53.009Z,42.95
2022-11-24T06:41:21.425Z,37.40
2022-11-24T06:43:48.378Z,40.65
2022-11-24T06:46:15.510Z,43.17
2022-11-24T06:48:42.541Z,46.75
2022-11-24T06:51:11.624Z,47.38
2022-11-24T06:53:39.977Z,45.50
2022-11-24T06:56:15.267Z,43.22
2022-11-24T06:58:45.841Z,42.00
2022-11-24T07:01:24.487Z,46.95
2022-11-24T07:03:52.387Z,51.75
2022-11-24T07:06:19.853Z,51.00
2022-11-24T07:08:47.336Z,47.03
2022-11-24T07:11:16.671Z,41.92
2022-11-24T07:13:44.621Z,42.70
2022-11-24T07:16:23.250Z,44.08
2022-11-24T07:18:52.092Z,35.53
2022-11-24T07:21:24.151Z,38.90
2022-11-24T07:23:53.060Z,41.00
2022-11-24T07:26:20.143Z,37.38
2022-11-24T07:28:47.130Z,39.58
2022-11-24T07:31:20.500Z,36.78
2022-11-24T07:33:52.310Z,37.35
2022-11-24T07:36:19.526Z,36.15
2022-11-24T07:38:46.683Z,30.63
2022-11-24T07:41:15.344Z,37.03
2022-11-24T07:43:42.501Z,31.88
2022-11-24T07:46:13.068Z,35.05
2022-11-24T07:51:07.699Z,31.02
2022-11-24T07:53:35.333Z,34.38
2022-11-24T07:56:12.958Z,34.58
2022-11-24T07:58:40.109Z,31.75
2022-11-24T08:01:12.365Z,32.78
2022-11-24T08:03:39.585Z,29.83
2022-11-24T08:08:53.845Z,34.72
2022-11-24T08:11:20.808Z,33.20
2022-11-24T08:13:47.871Z,38.33
2022-11-24T08:16:17.712Z,38.78
2022-11-24T08:18:49.036Z,47.97
2022-11-24T08:21:15.966Z,39.38
2022-11-24T08:23:43.033Z,38.03
2022-11-24T08:26:14.524Z,35.33
2022-11-24T08:28:41.689Z,34.55
2022-11-24T08:31:11.137Z,34.58
2022-11-24T08:33:38.867Z,34.15
2022-11-24T08:36:07.470Z,35.85
2022-11-24T08:38:34.841Z,40.05
2022-11-24T08:41:03.401Z,40.92
2022-11-24T08:43:33.913Z,37.08
2022-11-24T08:46:12.854Z,35.72
2022-11-24T08:48:40.066Z,35.67
2022-11-24T08:51:12.075Z,36.25
2022-11-24T08:53:39.613Z,32.53
2022-11-24T08:56:08.133Z,36.67
2022-11-24T08:58:35.713Z,30.73
2022-11-24T09:01:13.785Z,36.05
2022-11-24T09:03:46.540Z,37.67
2022-11-24T09:06:19.049Z,32.47
2022-11-24T09:08:46.014Z,36.58
2022-11-24T09:11:14.520Z,37.78
2022-11-24T09:13:41.977Z,37.42
2022-11-24T09:16:14.362Z,31.65
2022-11-24T09:18:41.993Z,33.35
2022-11-24T09:21:13.443Z,32.45
2022-11-24T09:23:40.873Z,36.42
2022-11-24T09:26:09.763Z,37.03
2022-11-24T09:28:36.867Z,32.53
2022-11-24T09:31:05.518Z,40.42
2022-11-24T09:33:33.677Z,34.70
2022-11-24T09:36:00.913Z,37.72
2022-11-24T09:38:28.368Z,39.20
2022-11-24T09:40:58.486Z,42.97
2022-11-24T09:43:51.787Z,45.60
2022-11-24T09:46:33.704Z,42.08
2022-11-24T09:49:01.922Z,38.88
2022-11-24T09:51:32.009Z,40.85
2022-11-24T09:54:25.473Z,42.30
2022-11-24T09:56:52.892Z,39.78
2022-11-24T09:59:23.971Z,43.53
2022-11-24T10:01:52.301Z,41.20
2022-11-24T10:04:35.150Z,39.63
2022-11-24T10:07:07.861Z,42.30
2022-11-24T10:09:44.131Z,42.28
2022-11-24T10:12:51.322Z,43.95
2022-11-24T10:15:40.101Z,42.90
2022-11-24T10:18:29.474Z,42.05
2022-11-24T10:21:14.263Z,46.30
2022-11-24T10:23:59.803Z,44.63
2022-11-24T10:26:40.966Z,48.08
2022-11-24T10:29:21.528Z,43.10
2022-11-24T10:31:49.272Z,40.67
2022-11-24T10:34:23.819Z,44.30
2022-11-24T10:37:09.506Z,48.80
2022-11-24T10:39:41.831Z,50.55
2022-11-24T10:42:16.510Z,45.40
2022-11-24T10:44:43.927Z,46.60
2022-11-24T10:47:23.130Z,42.53
2022-11-24T10:49:57.209Z,41.60
2022-11-24T10:52:26.103Z,41.55
2022-11-24T10:54:58.446Z,36.05
2022-11-24T10:57:32.980Z,40.33
2022-11-24T11:00:01.167Z,41.40
2022-11-24T11:02:39.851Z,40.35
2022-11-24T11:05:35.664Z,40.65
2022-11-24T11:08:14.818Z,35.55
2022-11-24T11:10:43.787Z,39.45
2022-11-24T11:13:28.615Z,37.67
2022-11-24T11:15:57.368Z,36.20
2022-11-24T11:18:33.049Z,38.45
2022-11-24T11:21:05.226Z,37.90
2022-11-24T11:23:35.297Z,37.10
2022-11-24T11:26:20.621Z,36.13
2022-11-24T11:34:53.129Z,40.40
2022-11-24T11:37:21.324Z,42.03
2022-11-24T11:39:51.177Z,38.60
2022-11-24T11:45:28.445Z,34.80
2022-11-24T11:48:01.632Z,38.58
2022-11-24T11:51:21.818Z,35.15
2022-11-24T11:53:52.199Z,35.80
2022-11-24T11:56:27.436Z,36.63
2022-11-24T11:59:18.750Z,32.92
2022-11-24T12:02:19.422Z,35.78
2022-11-24T12:04:55.036Z,35.72
2022-11-24T12:07:49.545Z,31.20
2022-11-24T12:10:44.388Z,35.30
2022-11-24T12:13:23.450Z,32.53
2022-11-24T12:15:52.449Z,40.55
2022-11-24T12:21:26.635Z,35.75
2022-11-24T12:23:56.874Z,34.97
2022-11-24T12:26:36.101Z,30.58
2022-11-24T12:29:24.445Z,39.42
2022-11-24T12:31:53.159Z,36.85
2022-11-24T12:34:29.029Z,35.30
2022-11-24T12:37:12.990Z,34.22
2022-11-24T12:39:51.046Z,37.90
2022-11-24T12:42:31.542Z,36.97
2022-11-24T12:45:07.045Z,39.38
2022-11-24T12:47:52.920Z,40.08
2022-11-24T12:50:22.857Z,38.40
2022-11-24T12:53:01.181Z,35.22
2022-11-24T12:55:29.605Z,37.70
2022-11-24T12:58:11.197Z,41.35
2022-11-24T13:00:53.331Z,37.67
2022-11-24T13:03:40.221Z,43.22
2022-11-24T13:06:16.108Z,42.92
2022-11-24T13:08:43.500Z,37.50
2022-11-24T13:11:38.131Z,36.72
2022-11-24T13:14:07.991Z,43.92
2022-11-24T13:16:40.825Z,44.97
2022-11-24T13:19:20.268Z,42.33
2022-11-24T13:21:53.135Z,40.00
2022-11-24T13:24:26.045Z,44.67
2022-11-24T13:27:16.298Z,41.15
2022-11-24T13:29:45.308Z,36.83
2022-11-24T13:32:15.194Z,47.65
2022-11-24T13:34:50.062Z,52.93
2022-11-24T13:37:31.271Z,52.65
2022-11-24T13:40:11.984Z,64.68
2022-11-24T13:43:03.489Z,49.53
2022-11-24T13:45:40.090Z,65.07
2022-11-24T13:48:20.094Z,63.20
2022-11-24T13:50:50.740Z,56.58
2022-11-24T13:53:43.250Z,61.63
2022-11-24T13:56:25.602Z,49.50
2022-11-24T13:58:58.940Z,55.65
2022-11-24T14:01:37.357Z,52.85
2022-11-24T14:04:30.555Z,46.67
2022-11-24T14:07:07.305Z,46.67
2022-11-24T14:09:42.438Z,50.97
2022-11-24T14:12:13.125Z,50.05
2022-11-24T14:17:24.644Z,48.00
2022-11-24T14:19:56.681Z,49.58
2022-11-24T14:22:40.951Z,49.65
2022-11-24T14:25:30.486Z,51.38
2022-11-24T14:27:57.933Z,56.17
2022-11-24T14:30:25.963Z,51.65
2022-11-24T14:33:01.484Z,58.20
2022-11-24T14:35:34.080Z,66.05
2022-11-24T14:38:05.493Z,64.72
2022-11-24T14:40:39.638Z,72.85
2022-11-24T14:43:15.695Z,75.30
2022-11-24T14:46:09.624Z,75.95
2022-11-24T14:48:37.943Z,80.40
2022-11-24T14:51:10.845Z,83.60
2022-11-24T14:53:42.311Z,78.13
2022-11-24T14:56:22.886Z,75.32
2022-11-24T14:58:50.219Z,82.85
2022-11-24T15:01:27.823Z,72.15
2022-11-24T15:04:22.066Z,66.90
2022-11-24T15:07:15.506Z,70.43
2022-11-24T15:09:49.239Z,69.55
2022-11-24T15:12:37.544Z,78.88
2022-11-24T15:15:20.608Z,80.32
2022-11-24T15:17:53.129Z,94.25
2022-11-24T15:20:37.225Z,84.68
2022-11-24T15:23:26.488Z,107.97
2022-11-24T15:25:55.106Z,91.15
2022-11-24T15:28:28.403Z,79.20
2022-11-24T15:30:57.310Z,83.72
2022-11-24T15:33:24.473Z,82.50
2022-11-24T15:35:51.547Z,87.20
2022-11-24T15:38:18.805Z,133.88
2022-11-24T15:40:47.602Z,130.65
2022-11-24T15:43:35.573Z,136.00
2022-11-24T15:46:03.801Z,127.18
2022-11-24T15:48:30.999Z,214.18
2022-11-24T15:50:58.999Z,162.68
2022-11-24T15:53:31.226Z,212.60
2022-11-24T15:55:58.433Z,220.27
2022-11-24T15:58:25.867Z,183.27
2022-11-24T16:00:53.934Z,140.50
2022-11-24T16:03:46.198Z,299.63
2022-11-24T16:06:23.681Z,460.50
2022-11-24T16:08:51.623Z,369.85
2022-11-24T16:11:18.626Z,222.18
2022-11-24T16:13:51.597Z,250.50
2022-11-24T16:16:20.185Z,215.10
2022-11-24T16:18:47.192Z,121.85
2022-11-24T16:21:14.480Z,99.60
2022-11-24T16:23:41.543Z,93.07
2022-11-24T16:26:08.821Z,97.65
2022-11-24T16:28:35.797Z,106.85
2022-11-24T16:31:02.750Z,155.13
2022-11-24T16:33:30.428Z,106.63
2022-11-24T16:35:57.578Z,98.60
2022-11-24T16:38:24.635Z,94.65
2022-11-24T16:40:53.304Z,108.03
2022-11-24T16:43:20.769Z,101.15
2022-11-24T16:45:59.074Z,111.97
2022-11-24T16:48:26.156Z,82.63
2022-11-24T16:50:53.138Z,80.90
2022-11-24T16:53:20.051Z,76.30
2022-11-24T16:55:57.054Z,73.20
2022-11-24T16:58:23.986Z,80.88
2022-11-24T17:00:50.980Z,78.75
2022-11-24T17:03:17.990Z,80.45
2022-11-24T17:05:44.922Z,83.97
2022-11-24T17:08:12.107Z,96.18
2022-11-24T17:10:39.430Z,106.28
2022-11-24T17:13:06.725Z,131.68
2022-11-24T17:15:37.767Z,100.68
2022-11-24T17:18:23.931Z,90.45
2022-11-24T17:20:51.841Z,99.28
2022-11-24T17:23:19.893Z,84.22
2022-11-24T17:25:48.640Z,87.07
2022-11-24T17:28:15.593Z,103.03
2022-11-24T17:30:42.975Z,94.97
2022-11-24T17:33:10.045Z,92.07
2022-11-24T17:35:37.343Z,97.35
2022-11-24T17:38:04.689Z,91.03
2022-11-24T17:40:31.635Z,77.90
2022-11-24T17:43:02.220Z,83.95
2022-11-24T17:45:30.012Z,79.03
2022-11-24T17:47:59.273Z,106.47
2022-11-24T17:50:26.680Z,96.65
2022-11-24T17:52:54.337Z,95.15
2022-11-24T17:55:22.821Z,103.03
2022-11-24T17:57:50.821Z,116.57
2022-11-24T18:00:18.232Z,117.18
2022-11-24T18:02:45.210Z,121.25
2022-11-24T18:05:12.156Z,120.63
2022-11-24T18:07:39.257Z,86.00
2022-11-24T18:10:06.801Z,103.53
2022-11-24T18:12:33.759Z,93.45
2022-11-24T18:15:00.697Z,82.80
2022-11-24T18:17:29.394Z,69.75
2022-11-24T18:19:56.472Z,92.05
2022-11-24T18:22:43.073Z,124.45
2022-11-24T18:25:10.447Z,101.18
2022-11-24T18:27:37.380Z,98.03
2022-11-24T18:30:05.805Z,88.35
2022-11-24T18:32:32.856Z,95.05
2022-11-24T18:34:59.781Z,84.15
2022-11-24T18:37:26.747Z,85.65
2022-11-24T18:39:53.664Z,92.97
2022-11-24T18:42:21.334Z,95.63
2022-11-24T18:44:52.562Z,97.70
2022-11-24T18:47:20.811Z,121.43
2022-11-24T18:49:47.743Z,105.35
2022-11-24T18:52:14.933Z,111.50
2022-11-24T18:54:42.980Z,86.07
2022-11-24T18:57:09.886Z,89.10
2022-11-24T18:59:37.160Z,93.82
2022-11-24T19:02:04.149Z,90.28
2022-11-24T19:04:31.140Z,84.78
2022-11-24T19:06:58.039Z,84.60
2022-11-24T19:09:25.913Z,86.20
2022-11-24T19:11:52.920Z,96.50
2022-11-24T19:14:20.530Z,80.10
2022-11-24T19:16:50.899Z,91.85
2022-11-24T19:19:17.997Z,95.32
2022-11-24T19:21:45.499Z,105.30
2022-11-24T19:24:13.475Z,100.15
2022-11-24T19:26:41.013Z,97.25
2022-11-24T19:29:09.204Z,98.82
2022-11-24T19:31:38.564Z,113.10
2022-11-24T19:34:06.318Z,111.03
2022-11-24T19:36:33.484Z,106.97
2022-11-24T19:39:00.505Z,108.57
2022-11-24T19:41:30.566Z,109.47
2022-11-24T19:43:59.030Z,112.72
2022-11-24T19:46:29.838Z,103.60
2022-11-24T19:48:59.419Z,95.28
2022-11-24T19:51:32.635Z,97.50
2022-11-24T19:54:00.205Z,105.93
2022-11-24T19:56:29.367Z,107.18
2022-11-24T19:58:58.874Z,106.00
2022-11-24T20:01:32.938Z,129.27
2022-11-24T20:04:02.242Z,138.23
2022-11-24T20:06:31.770Z,123.32
2022-11-24T20:09:00.774Z,125.40
2022-11-24T20:11:28.688Z,131.75
2022-11-24T20:13:56.196Z,140.60
2022-11-24T20:16:29.761Z,131.27
2022-11-24T20:18:58.699Z,103.53
2022-11-24T20:21:36.885Z,93.38
2022-11-24T20:24:10.841Z,95.60
2022-11-24T20:26:41.477Z,108.22
2022-11-24T20:29:12.492Z,84.93
2022-11-24T20:31:48.457Z,102.05
2022-11-24T20:34:15.910Z,109.88
2022-11-24T20:36:45.484Z,110.30
2022-11-24T20:39:28.066Z,116.13
2022-11-24T20:41:56.027Z,97.43
2022-11-24T20:44:24.096Z,105.15
2022-11-24T20:46:51.249Z,106.13
2022-11-24T20:49:20.081Z,106.63
2022-11-24T20:51:49.780Z,112.63
2022-11-24T20:54:18.061Z,117.43
2022-11-24T20:56:46.776Z,126.57
2022-11-24T20:59:16.202Z,120.70
2022-11-24T21:01:45.663Z,131.60
2022-11-24T21:04:15.787Z,111.30
2022-11-24T21:06:42.952Z,124.35
2022-11-24T21:09:13.350Z,122.32
2022-11-24T21:11:40.546Z,118.65
2022-11-24T21:14:08.212Z,129.40
2022-11-24T21:16:37.187Z,107.30
2022-11-24T21:19:06.331Z,138.50
2022-11-24T21:21:35.763Z,138.77
2022-11-24T21:24:10.425Z,131.52
2022-11-24T21:26:38.203Z,141.90
2022-11-24T21:29:05.248Z,147.13
2022-11-24T21:31:36.088Z,135.65
2022-11-24T21:34:03.360Z,144.68
2022-11-24T21:36:31.884Z,160.35
2022-11-24T21:38:59.376Z,143.95
2022-11-24T21:41:28.246Z,138.95
2022-11-24T21:43:58.591Z,173.90
2022-11-24T21:46:25.805Z,146.52
2022-11-24T21:48:52.632Z,159.50
2022-11-24T21:51:21.022Z,151.98
2022-11-24T21:53:48.271Z,180.02
2022-11-24T21:56:17.907Z,181.00
2022-11-24T21:58:49.662Z,157.45
2022-11-24T22:01:18.158Z,162.57
2022-11-24T22:03:46.151Z,179.43
2022-11-24T22:06:13.652Z,187.63
2022-11-24T22:08:40.615Z,190.25
2022-11-24T22:11:12.390Z,154.50
2022-11-24T22:13:39.704Z,127.15
2022-11-24T22:16:09.100Z,162.30
2022-11-24T22:18:40.709Z,176.73
2022-11-24T22:21:10.353Z,227.80
2022-11-24T22:23:37.892Z,200.90
2022-11-24T22:26:07.168Z,225.18
2022-11-24T22:28:35.628Z,145.30
2022-11-24T22:31:07.022Z,151.55
2022-11-24T22:33:34.824Z,149.85
2022-11-24T22:36:02.582Z,148.52
2022-11-24T22:38:30.334Z,137.88
2022-11-24T22:41:12.265Z,132.95
2022-11-24T22:43:40.217Z,137.30
2022-11-24T22:46:12.720Z,137.20
2022-11-24T22:48:40.552Z,130.05
2022-11-24T22:51:13.689Z,159.10
2022-11-24T22:53:41.424Z,126.22
2022-11-24T22:56:11.260Z,121.32
2022-11-24T22:58:39.342Z,124.93
2022-11-24T23:01:09.728Z,134.13
2022-11-24T23:03:37.363Z,154.95
2022-11-24T23:06:06.815Z,137.57
2022-11-24T23:08:34.890Z,163.18
2022-11-24T23:11:05.387Z,167.77
2022-11-24T23:13:32.757Z,164.18
2022-11-24T23:16:01.960Z,221.82
2022-11-24T23:18:29.612Z,193.23
2022-11-24T23:20:57.033Z,230.65
2022-11-24T23:23:24.204Z,258.77
2022-11-24T23:25:51.237Z,245.52
2022-11-24T23:28:18.166Z,241.60
2022-11-24T23:30:45.738Z,333.20
2022-11-24T23:33:12.842Z,236.10
2022-11-24T23:35:40.008Z,298.20
2022-11-24T23:38:08.042Z,236.82
2022-11-24T23:40:35.374Z,304.90
2022-11-24T23:43:02.356Z,265.48
2022-11-24T23:45:29.282Z,356.08
2022-11-24T23:47:56.348Z,163.45
2022-11-24T23:50:23.390Z,326.63
2022-11-24T23:52:50.264Z,220.85
2022-11-24T23:55:17.746Z,279.77
2022-11-24T23:57:44.672Z,293.92
